LNKC PHRF HANDICAPS

Sunday - June 3, 2018

Note: Click on any Column Heading to Sort by that Column

            Bold with Yellow highlight is a Certificate expiring within 60 days

            Bold with Red highlight is a Expired Certificate

Cert No. First Name Last Name Boat Name Sail No. Class Modification(s) HS% Spin * Base Rtg Race Rtg Certficate Link Cert Expiration
162ToddWulfhorstCatherine92Cal 28-2FP3 RFA4163Non-spin177183cert162.pdf2018-06-30
113WilliamWard----9Mirage 236154Non-spin183183cert113.pdf2018-07-31
131DavidSchwartzKool Breeze198Seidelmann 25150Non-spin222222cert131.pdf2018-08-31
166JohnBarnard-------718J-22100Non-spin180180cert166.pdf2018-08-31
170ClayCleelandCleeson Bros415J-22OP OS100S-spin180174cert170.pdf2018-08-31
184KarenDobbsHigh C's260Hunter 260RFA4100Non-spin228231cert184.pdf2018-09-30
150RafaelColonNo Direction0IC-24 ODR96S-spin177177cert150.pdf2018-09-30
189ScottEdwardsSaylorbeth1970Soling100Non-spin150150cert189.pdf2018-09-30
186DavidEveFlying Finish105VX One ODR87Sport Boat102102cert186.pdf2018-09-30
160RichardJonesOutrageous261S-2 9.2CRFA6155Non-spin192198cert160.pdf2018-10-31
190WaineRatlifMattie Jo310Hunter 310RFA6145Non-spin162168cert190.pdf2018-10-31
194David & CarolHouleAnything Is Possible323Beneteau 323FP3 RFA4116Non-Spin141150cert194.pdf2018-10-31
196ThomasTollesTomfoolery75O'Day 32-2 WK155Non-spin174174cert196.pdf2018-10-31
198Lake NormanCommunity SailingMacKenBriHunter 25.5155Non-spin207207cert198.pdf2018-12-31
182FermanWardellWind Borne59Hunter 28.5RFA4155Non-spin180183cert182.pdf2019-01-31
123TimSheppardSecond Wind2929Beneteau 265FP3 RFA4150Non-spin189198cert123.pdf2019-01-31
171SteveShawWindtrip53J-70 ODR104Sport Boat117117cert171.pdf2019-01-31
158DonTraskRaptor62J-70 ODR104Sport Boat117117cert158.pdf2019-01-31
163DougBowmanSelfish Lady184Olson 30 OBOS105S-spin105102cert163.pdf2019-02-28
154JohnRiceWindtrip X40J-95CF105Sport Boat108105cert154.pdf2019-02-28
168WayneMackeyTemptress138Luders 16198Non-spin264258cert168.pdf2019-03-31
169RatkoVujicic---65J-70 ODR104Sport Boat117117cert169.pdf2019-03-31
122DonBerridgeOle Gray Dawg275Catalina 22 SK150A-spin279279cert122.pdf2019-04-30
102BobKluttz38 Special38S-2 9.1154S-spin135135cert102.pdf2019-05-31
132Will Anderson & Steve BattelForay715C&C 30FP2 RFA4150A-spin174180cert132.pdf2019-05-31
142StevenJonesIrish Winch25Hunter 25 OB154Non-spin228228cert142.pdf2019-06-30
106KevinFultonWestwind347Catalina 270 WKFP3 RFA6135Non-spin204216cert106.pdf2019-06-30
143John P.Carter Jr.Gaelic Magic Too54Alerion Express 20MOD114Non-spin195192cert143.pdf2019-08-31
149John A.ButineGypsea III1313J-22 ODR100S-spin186186cert149.pdf2019-08-31
187WilliamWard---------157Mirage 5.5154Non-spin225225cert187.pdf2019-09-30
165TommySmithKnot Guilty50Catalina 22 SK150Non-spin279279cert165.pdf2019-09-30
192EllenTacherSinner77Precision 23130Non-spin228228cert192.pdf2019-09-30
188TreySunderlandFlash Mob4Duncanson PS84Sport Boat5454cert188.pdf2019-09-30
193BruceOnsagerImpunity847J-22 ODR97S-spin186186cert193.pdf2019-11-30
125ToddChambersIsland Girl 3150Cal 22RFA4135Non-spin234237cert125.pdf2019-12-31
201Lake NormanCommunity SailingDr. Do Little22Rhodes 22 Continental175Non-spin258258cert201.pdf2019-12-31
153WillaimMannSelah407S-2 9.2AFP2 RFA6155Non-spin183192cert153.pdf2020-01-31
277PaulKing--3357J-24150S-spin174174CERT277.pdf2020-01-31
185MichaelRobinson------1694San Juan 21 ODR130Non-spin252252cert185.pdf2020-02-28
146DonTraskSmokin' J696J-70 ODR104Sport Boat117117cert146.pdf2020-02-28
139BobHoffmanNeptune102Comet 1000RFA4150Non-spin165168cert139.pdf2020-02-28
214MikeRobinsonObi Juan125San Juan 7.7 Sail DriveRFA6135Non-spin198207cert214.pdf2020-03-26
216DominiqueFaleweeChessie Cat5766Catalina 27 IBRFA6135Non-spin216222cert216.pdf2020-03-26
115John N.Collins-5183J-24150S-spin174174cert115.pdf2020-03-31
111Clay CleelandUSA 16741674J-24154S-spin174174cert111.pdf2020-04-12
218JimHillAlegria724Sonar 23 ODR89S-spin177177cert218.pdf2020-04-24
219SeanRhoneBad Bunny120Hobie 33OS150S-spin9690cert219.pdf2020-04-24
118JonathanMyersPerl of Great Price40710Soverel 33-2 ODR155S-spin8787cert118.pdf2020-05-30
260BriceAdamsonEnterprise8J-88105Sport Boat8484cert260.pdf2020-06-06
261WalterTatumThe Frances Lynne465Alerion Express 28RFA484Non-spin162165cert161.pdf2020-06-30
130DrewLamparelloAloha1057Capri 22 Catalina WKRFA6150Non-spin210216cert130.pdf2020-07-31
263JonathanGrabantsBlow Me154Columbia 26-2154Non-spin228228cert263.pdf2020-08-31
264MarilynCalame'Uncle Buck29Buccaneer 295155S-spin174174cert264.pdf2020-08-31
267ChrisRhodesMorgan 27227Morgan 27155Non-spin186186cert267.pdf2020-09-30
266DaveSafistein-------14025Catalina 22 SK155Non-spin279279cert266.pdf2020-09-30
269BarryStevensBandit166Pearson Flyer155S-spin135135cert269.pdf2020-09-30
265WinkClineWindswept29Harbor 2585Non-spin174177cert265.pdf2020-09-30
271PeteCalame'Sprinto272Sprinto Sport 23155S-Spin207207cert271.pdf2020-10-31
270WilliamWard-7Mirage 5.5154Non-spin225225cert270.pdf2020-10-31
272NeilTreadgoldPort/Starboard5231Catalina 25 FK TM154Non-spin225225CERT272.pdf2020-10-31
121DonCoreyfore25Ultimate 20 ODR110Sport Boat147147CERT121.pdf2020-11-20
128ScottOlsonNo Soup For U187Ultimate 20 ODR111Sport Boat147147CERT128.pdf2020-11-20
137DeanNelsonUh-Huh154Ultimate 20 ODR111Sport Boat147147CERT137.pdf2020-11-20
195BJ &EmilyJonesRumbullion151Ultimate 20 ODR110Sport Boat147147CERT195.pdf2020-11-20
116TimothyPorterMighty Mouse21Ultimate 20 ODR114Sport Boat147147CERT116.pdf2020-11-20
210Jim Juhl& Jim Rhoades-BaldwinSmoke75Ultimate 20 ODR110Sport Boat147147CERT210.pdf2020-11-20
135BobMcGrathN/A174Ultimate 20 ODR111Sport Boat147147CERT135.pdf2020-11-20
126Treez Decker& Ken CorsigU too57Ultimate 20 ODR110Sport Boat147147CERT126.pdf2020-11-20
268ChetWiesenmayerlotsaknots148Ultimate 20 ODR111Sport Boat147147CERT268.pdf2020-11-20
156JohnMcCaskillWild Hare256Ericson 35-3RFA6155Non-spin132138CERT156.pdf2020-11-30
127ShariMarcusLuvit186Pearson 28RFA4153Non-spin189192CERT127.pdf2020-11-30
175KurtBeyerCross Town Traffic7272J-80155Sport Boat117117CERT175.pdf2020-11-30
124TedKaperonisIliad1385Pearson Ensign169S-spin270264CERT124.pdf2020-11-30
183JohnScharerTenacious184Pearson 28-2155Non-spin186186cert183.pdf2020-11-30
133BobDavisPapa John1816Tanzer 22 CB169Non-spin246240CERT133.pdf2020-11-30
138JoeCorriherConfederate Ram120J-80 ODR96Sport Boat123123CERT138.pdf2020-11-30
148CraigGalowThumper63297Evelyn 25154S-spin144144CERT148.pdf2020-11-30
178T. KevinQueenBone Chillin'829J-80155Sport Boat117117CERT178.pdf2020-11-30
174AlanCleelandAba Babba31664J-29 OB FR155S-spin126123CERT174.pdf2020-11-30
105GlenBullossSails Call71162Hunter 30 SDFP2 RFA6130Non-spin201210CERT105.pdf2020-11-30
112DaveSullivanLegs A Shakin10015Beneteau 10 R152A-spin8787CERT112.pdf2020-11-30
140Richard K.FerrarSuprise!229Pearson 28 SD170Non-spin192186CERT140.pdf2020-11-30
275BobHoffmanOld Blue691Ericson 28-2RFA6140Non-spin189198CERT275.pdf2020-12-30
273BobNolenWindchaser1123J-80150Sport Boat117117cert273.pdf2020-12-30
274DonCorey-----250Ultimate 20120Sport Boat135135cert274.pdf2020-12-31
276JessicaBlairCookie Monster485S2 7.9 FK155S-spin161161cert276.pdf2021-01-31
181John GuthrieLone Ranger20240Ranger 28 TM154Non-spin186186CERT-181.pdf2021-02-28
114Samuel J.ReevesMad Hatter1181Catalina 30 TM BSRFA4154Non-spin180183CERT-114.pdf2021-02-28
279SteveEmerzianCamden83Hunter 23 WK132Non-spin240243CERT-279.pdf2021-02-28
157RichardBlockerSimple Pleasures3479Catalina 30 TM BSFP2 RFA6152Non-spin180189CERT-157.pdf2021-02-28
180PeteMarriottAloha5706Catalina 30FP2155Non-spin192195CERT-180.pdf2021-02-28
129ChrisGreenmanIrish Mist II1770Catalina 30FP3 RFA4155Non-spin192201CERT-129.pdf2021-02-28
197John & SusieBeekerMoondance168Ranger 28 TM DK155Non-spin183189CERT-197.pdf2021-02-28
217TomPayneJimmy239Ranger 22155Non-spin222222CERT-217.pdf2021-02-28
278JoeCorriherNo Filter541J-70 ODR104Sport Boat117117CERT278.pdf2021-02-28
280DavidThomasC'est Bien32Beneteau First 22 - ODR100Non-spin222225CERT-280.pdf2021-03-31
110BrianO'MalleyBlue64J-88105Sport Boat8484Cert110.pdf2021-03-31
281BobWeidingerLiquid Lounge111S-2 9.2AFP3 RFA4135Non-spin183192Cert281.pdf2021-04-01
103JacobTerrellThe PreNup35Hunter 34150Non-spin138138Cert103.pdf2021-04-30
282RobertScancarelliSpirit In The Sky9Catalina 320 WKRFA4140Non-spin162165Cert282.pdf2021-04-30
134SteveHolbrookCeltic Pride604Hunter 23 WK149Non-spin240240cert-134.pdf2021-04-30
173JohnProctorLuffrbuoy 217Catalina 315 WKRFA6150Non-spin165174CERT-173.pdf2021-05-31
283Pete & KerrieLalliElectric Mayhem57Seascape 24 ODR100Sort Boat102102cert-283.pdf2021-05-31
144BobDavisTrade Wins2243Tanzer 22 K170S-spin237231CERT-144.pdf2021-05-31
167John A.OlsenJohn's Girl4997Starwind 19TM155S-spin288279167, John Olsen, John's Girl june 2108.pdf2021-06-30
285GregPoleckBoomerang240Oday 240140Non-spin240240CERT-285.pdf2021-06-30
284JoshMergenthaler1666Pearson 26155Non-spin225225CERT-284.pdf2021-06-30

* - "Non-spin" Indicates that spinnaker measurements have not been submitted for rating.

Abbreviations used for Modification(s)

AS - Asymmetrical Spinnaker OP - Oversize Pole
BS - Bow Sprit OS - Oversize Spinnaker
CB - Centerboard RAC - Racing version
CUT,CTR - Cutter RFA4 - Roller Furling Above Deck 4-6 oz UV
DK - Deep Keel RFA6 - Roller Furling Above Deck >6 oz UV
FK - Fin Keel RFB - Roller Furling Below Deck
FP2 - Fixed Prop 2 Blades SD - Shoal Draft
FP3 - Fixed Prop 3 Blades SHK - Shortened Keel
FR - Fractional Rig SK - Swing Keel
IB - Inboard Engine SM - Short Mast
MH - Masthead Rig TM - Tall Mast
MOD - Modified UC - Unconventional Craft
OB - Outboard Engine VTM - Very Tall Mast
ODR - One Design Rating WK - Wing Keel
OL - Oversize Luff .

Quick and easy table sorting powered by Dynamic Table